Aérodrome :
LOGIN :

S'inscrire | Disclaimer

   EN    FR    IT 

 










Légende :    VFR   VFR Marginal   IFR   IFR Intensif   IFR Très Intensif
Visi : 
Plafond : 
>= 8 km
>= 3000ft
5 à 8 km
1000 à 3000 ft
1500m à 5 km
500 à 1000 ft
800 à 1500m
200 à 500 ft
< 800m
< 200 ft
Symboles :   Orages  Brouillard  Fortes neiges  Fortes précipitations  Vent > 20 kt
SIGMETs :   Divers  Orages  Givrage  Turbulence  Onde Orograph.  Cendres Volcan.






- Altitude de l'aérodrome : 353 ft
- Code IATA : LIN


LIML - Milano Linate

DERNIER METAR :
  • 200820Z 01003KT 350V050 CAVOK 02/M03 Q1041 NOSIG

METARs EXPIRÉS :
  • 200750Z 03005KT CAVOK 01/M04 Q1040 NOSIG
  • 200720Z 36004KT CAVOK M00/M03 Q1040 NOSIG
  • 200650Z 36004KT CAVOK 00/M03 Q1040 NOSIG
  • 200620Z VRB01KT CAVOK 01/M03 Q1039 NOSIG
  • 200550Z VRB01KT CAVOK 01/M01 Q1039 NOSIG

TAF TAF LIML
Valide du 20 à 06h jusqu'au 21 à 06h UTC


200500Z 2006/2106 VRB05KT 9999 SCT090



MET'MAP, la Météo Aéronautique d'un coup d'oeil ! - Copyright ORBIFLY Décembre 2007 - Disclaimer

ORBIFLY MET'MAP TEAM :

Programmation & Développement : Alexandra Zaïnal
Sur une idée originale de : Baudouin d'Aumeries
Assistance à la programmation : Marc-Olivier Méhu
Soutien technique & logistique : Manuel Goepfert

Contact : metmap@orbifly.com




SOURCES & CREDITS :

   NOAA